sensor_id;sensor_type;location;lat;lon;timestamp;pressure;altitude;pressure_sealevel;temperature;humidity
3428;BME280;1727;42.624;23.406;2023-02-01T00:02:03;94979.94;;;2.50;88.14
3428;BME280;1727;42.624;23.406;2023-02-01T00:04:30;94974.63;;;2.53;88.26
3428;BME280;1727;42.624;23.406;2023-02-01T00:06:57;94975.63;;;2.51;87.41
3428;BME280;1727;42.624;23.406;2023-02-01T00:09:25;94968.16;;;2.44;87.95
3428;BME280;1727;42.624;23.406;2023-02-01T00:11:52;94969.44;;;2.53;89.30
3428;BME280;1727;42.624;23.406;2023-02-01T00:14:19;94969.59;;;2.50;88.33
3428;BME280;1727;42.624;23.406;2023-02-01T00:16:45;94973.78;;;2.53;88.07
3428;BME280;1727;42.624;23.406;2023-02-01T00:19:14;94975.09;;;2.44;87.98
3428;BME280;1727;42.624;23.406;2023-02-01T00:21:41;94972.50;;;2.44;88.26
3428;BME280;1727;42.624;23.406;2023-02-01T00:24:10;94969.91;;;2.44;87.60
3428;BME280;1727;42.624;23.406;2023-02-01T00:26:40;94969.69;;;2.48;87.38
3428;BME280;1727;42.624;23.406;2023-02-01T00:29:11;94973.25;;;2.46;87.47
3428;BME280;1727;42.624;23.406;2023-02-01T00:31:38;94969.25;;;2.40;87.38
3428;BME280;1727;42.624;23.406;2023-02-01T00:34:05;94965.22;;;2.35;87.12
3428;BME280;1727;42.624;23.406;2023-02-01T00:36:32;94971.31;;;2.34;88.24
3428;BME280;1727;42.624;23.406;2023-02-01T00:38:59;94963.47;;;2.35;88.63
3428;BME280;1727;42.624;23.406;2023-02-01T00:41:26;94954.16;;;2.31;87.86
3428;BME280;1727;42.624;23.406;2023-02-01T00:43:54;94959.22;;;2.34;86.69
3428;BME280;1727;42.624;23.406;2023-02-01T00:46:21;94947.94;;;2.35;86.78
3428;BME280;1727;42.624;23.406;2023-02-01T00:48:49;94962.63;;;2.35;86.06
3428;BME280;1727;42.624;23.406;2023-02-01T00:51:18;94952.50;;;2.30;85.62
3428;BME280;1727;42.624;23.406;2023-02-01T00:53:45;94948.69;;;2.37;85.62
3428;BME280;1727;42.624;23.406;2023-02-01T00:56:12;94952.44;;;2.32;84.83
3428;BME280;1727;42.624;23.406;2023-02-01T00:58:39;94949.91;;;2.30;84.21
3428;BME280;1727;42.624;23.406;2023-02-01T01:01:09;94946.19;;;2.36;85.30
3428;BME280;1727;42.624;23.406;2023-02-01T01:03:41;94954.47;;;2.42;84.09
3428;BME280;1727;42.624;23.406;2023-02-01T01:06:10;94942.28;;;2.44;83.11
3428;BME280;1727;42.624;23.406;2023-02-01T01:08:37;94945.66;;;2.29;81.91
3428;BME280;1727;42.624;23.406;2023-02-01T01:11:05;94948.88;;;2.17;82.22
3428;BME280;1727;42.624;23.406;2023-02-01T01:13:32;94953.06;;;2.20;82.09
3428;BME280;1727;42.624;23.406;2023-02-01T01:16:00;94950.78;;;2.13;82.53
3428;BME280;1727;42.624;23.406;2023-02-01T01:18:29;94947.88;;;2.02;82.96
3428;BME280;1727;42.624;23.406;2023-02-01T01:20:57;94947.06;;;2.02;82.96
3428;BME280;1727;42.624;23.406;2023-02-01T01:23:24;94946.75;;;2.08;87.48
3428;BME280;1727;42.624;23.406;2023-02-01T01:25:51;94946.75;;;2.08;82.66
3428;BME280;1727;42.624;23.406;2023-02-01T01:28:18;94948.28;;;2.12;82.38
3428;BME280;1727;42.624;23.406;2023-02-01T01:30:45;94955.88;;;2.15;81.21
3428;BME280;1727;42.624;23.406;2023-02-01T01:33:12;94944.47;;;2.19;82.04
3428;BME280;1727;42.624;23.406;2023-02-01T01:35:40;94944.47;;;2.19;80.92
3428;BME280;1727;42.624;23.406;2023-02-01T01:38:09;94953.50;;;2.28;80.98
3428;BME280;1727;42.624;23.406;2023-02-01T01:40:37;94961.41;;;2.42;80.45
3428;BME280;1727;42.624;23.406;2023-02-01T01:43:12;94963.56;;;2.49;79.50
3428;BME280;1727;42.624;23.406;2023-02-01T01:45:39;94964.41;;;2.50;78.80
3428;BME280;1727;42.624;23.406;2023-02-01T01:48:09;94970.34;;;2.52;78.34
3428;BME280;1727;42.624;23.406;2023-02-01T01:50:44;94976.59;;;2.48;77.45
3428;BME280;1727;42.624;23.406;2023-02-01T01:53:17;94964.31;;;2.36;76.90
3428;BME280;1727;42.624;23.406;2023-02-01T01:55:46;94976.41;;;2.35;77.77
3428;BME280;1727;42.624;23.406;2023-02-01T01:58:16;94977.25;;;2.36;76.97
3428;BME280;1727;42.624;23.406;2023-02-01T02:00:44;94967.25;;;2.45;77.01
3428;BME280;1727;42.624;23.406;2023-02-01T02:03:14;94947.78;;;2.38;76.82
3428;BME280;1727;42.624;23.406;2023-02-01T02:05:46;94953.72;;;2.40;76.52
3428;BME280;1727;42.624;23.406;2023-02-01T02:08:15;94957.84;;;2.27;76.39
3428;BME280;1727;42.624;23.406;2023-02-01T02:10:42;94964.69;;;2.28;77.41
3428;BME280;1727;42.624;23.406;2023-02-01T02:13:30;94953.38;;;2.13;77.91
3428;BME280;1727;42.624;23.406;2023-02-01T02:16:09;94960.31;;;2.13;77.59
3428;BME280;1727;42.624;23.406;2023-02-01T02:18:45;94954.53;;;2.08;77.95
3428;BME280;1727;42.624;23.406;2023-02-01T02:21:27;94945.53;;;1.98;77.68
3428;BME280;1727;42.624;23.406;2023-02-01T02:24:30;94945.53;;;1.98;77.90
3428;BME280;1727;42.624;23.406;2023-02-01T02:27:10;94940.84;;;1.89;78.48
3428;BME280;1727;42.624;23.406;2023-02-01T02:33:25;94941.28;;;1.97;77.96
3428;BME280;1727;42.624;23.406;2023-02-01T02:35:59;94952.38;;;1.99;78.24
3428;BME280;1727;42.624;23.406;2023-02-01T02:38:33;94953.69;;;1.90;77.57
3428;BME280;1727;42.624;23.406;2023-02-01T02:41:10;94946.84;;;1.89;78.29
3428;BME280;1727;42.624;23.406;2023-02-01T02:44:02;94946.75;;;1.73;78.49
3428;BME280;1727;42.624;23.406;2023-02-01T02:46:49;94955.97;;;1.62;78.84
3428;BME280;1727;42.624;23.406;2023-02-01T02:49:39;94943.09;;;1.43;79.57
3428;BME280;1727;42.624;23.406;2023-02-01T02:52:12;94929.06;;;1.48;80.78
3428;BME280;1727;42.624;23.406;2023-02-01T02:54:58;94928.50;;;1.42;80.62
3428;BME280;1727;42.624;23.406;2023-02-01T02:57:29;94924.31;;;1.39;80.07
3428;BME280;1727;42.624;23.406;2023-02-01T03:00:17;94935.81;;;1.51;81.23
3428;BME280;1727;42.624;23.406;2023-02-01T03:03:02;94932.84;;;1.59;80.50
3428;BME280;1727;42.624;23.406;2023-02-01T03:05:49;94933.84;;;1.56;79.37
3428;BME280;1727;42.624;23.406;2023-02-01T03:08:17;94931.56;;;1.50;79.79
3428;BME280;1727;42.624;23.406;2023-02-01T03:10:51;94940.84;;;1.54;80.95
3428;BME280;1727;42.624;23.406;2023-02-01T03:13:27;94945.03;;;1.57;79.62
3428;BME280;1727;42.624;23.406;2023-02-01T03:16:00;94946.78;;;1.56;78.35
3428;BME280;1727;42.624;23.406;2023-02-01T03:18:32;94961.38;;;1.57;78.96
3428;BME280;1727;42.624;23.406;2023-02-01T03:21:05;94968.91;;;1.62;77.72
3428;BME280;1727;42.624;23.406;2023-02-01T03:23:35;94969.28;;;1.71;79.08
3428;BME280;1727;42.624;23.406;2023-02-01T03:26:06;94957.25;;;1.70;77.24
3428;BME280;1727;42.624;23.406;2023-02-01T03:28:35;94976.44;;;1.83;77.31
3428;BME280;1727;42.624;23.406;2023-02-01T03:31:04;94969.59;;;1.82;76.48
3428;BME280;1727;42.624;23.406;2023-02-01T03:33:31;94974.69;;;1.84;76.97
3428;BME280;1727;42.624;23.406;2023-02-01T03:36:08;94974.38;;;1.90;77.43
3428;BME280;1727;42.624;23.406;2023-02-01T03:38:38;94973.56;;;1.90;76.62
3428;BME280;1727;42.624;23.406;2023-02-01T03:41:12;94974.47;;;1.89;77.18
3428;BME280;1727;42.624;23.406;2023-02-01T03:43:47;94981.69;;;1.82;77.32
3428;BME280;1727;42.624;23.406;2023-02-01T03:46:22;94975.00;;;1.78;77.54
3428;BME280;1727;42.624;23.406;2023-02-01T03:48:52;94978.88;;;1.86;77.66
3428;BME280;1727;42.624;23.406;2023-02-01T03:51:22;94974.53;;;1.87;77.81
3428;BME280;1727;42.624;23.406;2023-02-01T03:53:52;94977.28;;;2.01;78.00
3428;BME280;1727;42.624;23.406;2023-02-01T03:56:21;94976.81;;;2.10;77.57
3428;BME280;1727;42.624;23.406;2023-02-01T03:58:49;94982.00;;;2.10;76.97
3428;BME280;1727;42.624;23.406;2023-02-01T04:01:26;94982.31;;;2.04;77.11
3428;BME280;1727;42.624;23.406;2023-02-01T04:03:53;94984.19;;;2.01;76.57
3428;BME280;1727;42.624;23.406;2023-02-01T04:06:21;94982.00;;;2.10;77.34
3428;BME280;1727;42.624;23.406;2023-02-01T04:08:48;94980.50;;;2.06;77.13
3428;BME280;1727;42.624;23.406;2023-02-01T04:11:15;94978.75;;;2.07;76.87
3428;BME280;1727;42.624;23.406;2023-02-01T04:13:42;94980.34;;;2.09;76.85
3428;BME280;1727;42.624;23.406;2023-02-01T04:16:09;94965.03;;;2.05;77.46
3428;BME280;1727;42.624;23.406;2023-02-01T04:18:36;94972.16;;;2.17;77.52
3428;BME280;1727;42.624;23.406;2023-02-01T04:21:03;94976.28;;;2.21;76.35
3428;BME280;1727;42.624;23.406;2023-02-01T04:23:31;94976.13;;;2.24;76.11
3428;BME280;1727;42.624;23.406;2023-02-01T04:26:02;94975.34;;;2.22;76.52
3428;BME280;1727;42.624;23.406;2023-02-01T04:28:30;94973.75;;;2.20;77.11
3428;BME280;1727;42.624;23.406;2023-02-01T04:30:57;94968.81;;;2.15;78.33
3428;BME280;1727;42.624;23.406;2023-02-01T04:33:24;94978.25;;;2.16;78.75
3428;BME280;1727;42.624;23.406;2023-02-01T04:35:51;94968.06;;;2.13;78.95
3428;BME280;1727;42.624;23.406;2023-02-01T04:38:17;94984.19;;;2.18;79.20
3428;BME280;1727;42.624;23.406;2023-02-01T04:40:48;94981.78;;;2.15;78.52
3428;BME280;1727;42.624;23.406;2023-02-01T04:43:15;94982.38;;;2.20;79.38
3428;BME280;1727;42.624;23.406;2023-02-01T04:45:46;94985.78;;;2.21;79.84
3428;BME280;1727;42.624;23.406;2023-02-01T04:48:14;94972.25;;;2.33;80.76
3428;BME280;1727;42.624;23.406;2023-02-01T04:50:40;94980.03;;;2.48;79.36
3428;BME280;1727;42.624;23.406;2023-02-01T04:53:07;94976.25;;;2.38;79.38
3428;BME280;1727;42.624;23.406;2023-02-01T04:55:34;94977.00;;;2.40;79.28
3428;BME280;1727;42.624;23.406;2023-02-01T04:58:02;94972.06;;;2.36;79.82
3428;BME280;1727;42.624;23.406;2023-02-01T05:00:29;94978.94;;;2.37;80.73
3428;BME280;1727;42.624;23.406;2023-02-01T05:02:56;94984.94;;;2.37;80.43
3428;BME280;1727;42.624;23.406;2023-02-01T05:05:23;94996.91;;;2.40;80.75
3428;BME280;1727;42.624;23.406;2023-02-01T05:07:49;94990.28;;;2.34;80.61
3428;BME280;1727;42.624;23.406;2023-02-01T05:10:16;95000.41;;;2.22;81.85
3428;BME280;1727;42.624;23.406;2023-02-01T05:12:43;94996.22;;;2.19;82.76
3428;BME280;1727;42.624;23.406;2023-02-01T05:15:29;95000.03;;;2.12;83.96
3428;BME280;1727;42.624;23.406;2023-02-01T05:17:56;95010.41;;;2.12;83.13
3428;BME280;1727;42.624;23.406;2023-02-01T05:20:23;95013.06;;;2.10;84.31
3428;BME280;1727;42.624;23.406;2023-02-01T05:22:50;95002.03;;;2.07;84.40
3428;BME280;1727;42.624;23.406;2023-02-01T05:25:17;95005.63;;;2.04;84.55
3428;BME280;1727;42.624;23.406;2023-02-01T05:27:44;95011.22;;;2.12;84.51
3428;BME280;1727;42.624;23.406;2023-02-01T05:30:12;95012.34;;;2.24;84.47
3428;BME280;1727;42.624;23.406;2023-02-01T05:32:40;95013.50;;;2.36;83.47
3428;BME280;1727;42.624;23.406;2023-02-01T05:35:08;95009.16;;;2.36;82.97
3428;BME280;1727;42.624;23.406;2023-02-01T05:37:34;95009.91;;;2.38;82.89
3428;BME280;1727;42.624;23.406;2023-02-01T05:40:01;95012.19;;;2.44;82.96
3428;BME280;1727;42.624;23.406;2023-02-01T05:42:28;95002.50;;;2.48;82.97
3428;BME280;1727;42.624;23.406;2023-02-01T05:44:55;95006.00;;;2.47;82.82
3428;BME280;1727;42.624;23.406;2023-02-01T05:47:22;94998.59;;;2.57;82.19
3428;BME280;1727;42.624;23.406;2023-02-01T05:49:50;95008.88;;;2.58;82.56
3428;BME280;1727;42.624;23.406;2023-02-01T05:52:17;95006.28;;;2.58;82.40
3428;BME280;1727;42.624;23.406;2023-02-01T05:54:44;95003.84;;;2.55;82.10
3428;BME280;1727;42.624;23.406;2023-02-01T05:57:11;95009.94;;;2.54;82.40
3428;BME280;1727;42.624;23.406;2023-02-01T05:59:38;94994.50;;;2.53;82.16
3428;BME280;1727;42.624;23.406;2023-02-01T06:02:06;95004.19;;;2.49;82.09
3428;BME280;1727;42.624;23.406;2023-02-01T06:04:33;95003.94;;;2.54;81.56
3428;BME280;1727;42.624;23.406;2023-02-01T06:07:01;95006.59;;;2.52;81.21
3428;BME280;1727;42.624;23.406;2023-02-01T06:09:28;95008.97;;;2.57;81.29
3428;BME280;1727;42.624;23.406;2023-02-01T06:11:55;95011.63;;;2.55;81.26
3428;BME280;1727;42.624;23.406;2023-02-01T06:14:22;95011.38;;;2.60;81.32
3428;BME280;1727;42.624;23.406;2023-02-01T06:16:49;95015.44;;;2.65;79.53
3428;BME280;1727;42.624;23.406;2023-02-01T06:19:16;95015.34;;;2.67;80.41
3428;BME280;1727;42.624;23.406;2023-02-01T06:21:43;95018.03;;;2.65;79.08
3428;BME280;1727;42.624;23.406;2023-02-01T06:24:11;95017.28;;;2.63;80.10
3428;BME280;1727;42.624;23.406;2023-02-01T06:26:38;95017.09;;;2.66;79.50
3428;BME280;1727;42.624;23.406;2023-02-01T06:29:05;95019.47;;;2.71;79.59
3428;BME280;1727;42.624;23.406;2023-02-01T06:31:32;95014.13;;;2.74;79.04
3428;BME280;1727;42.624;23.406;2023-02-01T06:33:59;95015.78;;;2.75;79.09
3428;BME280;1727;42.624;23.406;2023-02-01T06:36:26;95024.16;;;2.80;79.22
3428;BME280;1727;42.624;23.406;2023-02-01T06:38:53;95023.69;;;2.89;78.00
3428;BME280;1727;42.624;23.406;2023-02-01T06:41:24;95014.81;;;2.93;77.47
3428;BME280;1727;42.624;23.406;2023-02-01T06:43:56;95018.94;;;2.97;77.75
3428;BME280;1727;42.624;23.406;2023-02-01T06:46:26;95029.22;;;2.99;76.49
3428;BME280;1727;42.624;23.406;2023-02-01T06:48:53;95023.84;;;3.02;76.39
3428;BME280;1727;42.624;23.406;2023-02-01T06:51:24;95035.22;;;2.99;76.36
3428;BME280;1727;42.624;23.406;2023-02-01T06:53:52;95030.88;;;3.00;76.46
3428;BME280;1727;42.624;23.406;2023-02-01T06:56:19;95027.88;;;3.07;79.03
3428;BME280;1727;42.624;23.406;2023-02-01T06:58:48;95022.28;;;3.15;77.93
3428;BME280;1727;42.624;23.406;2023-02-01T07:01:16;95035.41;;;3.43;84.42
3428;BME280;1727;42.624;23.406;2023-02-01T07:03:42;95031.75;;;3.32;80.23
3428;BME280;1727;42.624;23.406;2023-02-01T07:06:09;95036.75;;;3.35;77.37
3428;BME280;1727;42.624;23.406;2023-02-01T07:08:37;95046.56;;;3.30;76.27
3428;BME280;1727;42.624;23.406;2023-02-01T07:11:05;95053.25;;;3.34;79.69
3428;BME280;1727;42.624;23.406;2023-02-01T07:13:32;95049.22;;;3.28;77.45
3428;BME280;1727;42.624;23.406;2023-02-01T07:16:01;95063.78;;;3.31;75.94
3428;BME280;1727;42.624;23.406;2023-02-01T07:18:30;95058.19;;;3.23;75.79
3428;BME280;1727;42.624;23.406;2023-02-01T07:20:57;95058.84;;;3.26;76.26
3428;BME280;1727;42.624;23.406;2023-02-01T07:23:25;95064.13;;;3.25;75.48
3428;BME280;1727;42.624;23.406;2023-02-01T07:25:53;95063.19;;;3.26;77.13
3428;BME280;1727;42.624;23.406;2023-02-01T07:28:20;95076.16;;;3.26;75.51
3428;BME280;1727;42.624;23.406;2023-02-01T07:30:47;95081.44;;;3.24;75.80
3428;BME280;1727;42.624;23.406;2023-02-01T07:33:18;95082.94;;;3.28;76.84
3428;BME280;1727;42.624;23.406;2023-02-01T07:35:46;95087.88;;;3.33;77.38
3428;BME280;1727;42.624;23.406;2023-02-01T07:38:12;95075.75;;;3.33;76.67
3428;BME280;1727;42.624;23.406;2023-02-01T07:40:39;95084.53;;;3.31;76.08
3428;BME280;1727;42.624;23.406;2023-02-01T07:43:06;95082.94;;;3.44;77.61
3428;BME280;1727;42.624;23.406;2023-02-01T07:45:33;95087.13;;;3.47;73.89
3428;BME280;1727;42.624;23.406;2023-02-01T07:48:00;95086.16;;;3.49;74.07
3428;BME280;1727;42.624;23.406;2023-02-01T07:50:29;95089.59;;;3.50;76.71
3428;BME280;1727;42.624;23.406;2023-02-01T07:52:58;95089.31;;;3.54;77.02
3428;BME280;1727;42.624;23.406;2023-02-01T07:55:26;95095.34;;;3.55;73.91
3428;BME280;1727;42.624;23.406;2023-02-01T07:57:53;95084.63;;;3.61;76.36
3428;BME280;1727;42.624;23.406;2023-02-01T08:00:22;95094.50;;;3.70;75.64
3428;BME280;1727;42.624;23.406;2023-02-01T08:03:06;95103.97;;;3.71;77.18
3428;BME280;1727;42.624;23.406;2023-02-01T08:05:34;95109.06;;;3.72;73.79
3428;BME280;1727;42.624;23.406;2023-02-01T08:08:02;95113.41;;;3.72;74.90
3428;BME280;1727;42.624;23.406;2023-02-01T08:10:29;95114.25;;;3.72;73.35
3428;BME280;1727;42.624;23.406;2023-02-01T08:12:58;95096.34;;;3.68;73.93
3428;BME280;1727;42.624;23.406;2023-02-01T08:15:25;95095.91;;;3.76;77.47
3428;BME280;1727;42.624;23.406;2023-02-01T08:17:52;95110.59;;;3.77;73.91
3428;BME280;1727;42.624;23.406;2023-02-01T08:20:20;95110.25;;;3.83;73.23
3428;BME280;1727;42.624;23.406;2023-02-01T08:22:49;95089.97;;;3.89;74.07
3428;BME280;1727;42.624;23.406;2023-02-01T08:25:17;95096.66;;;3.93;72.41
3428;BME280;1727;42.624;23.406;2023-02-01T08:27:44;95094.16;;;3.92;72.32
3428;BME280;1727;42.624;23.406;2023-02-01T08:30:12;95105.22;;;3.95;70.83
3428;BME280;1727;42.624;23.406;2023-02-01T08:32:39;95108.66;;;3.96;70.90
3428;BME280;1727;42.624;23.406;2023-02-01T08:35:06;95103.19;;;4.00;71.73
3428;BME280;1727;42.624;23.406;2023-02-01T08:37:34;95106.41;;;4.06;70.86
3428;BME280;1727;42.624;23.406;2023-02-01T08:40:02;95105.94;;;4.13;72.91
3428;BME280;1727;42.624;23.406;2023-02-01T08:42:29;95103.53;;;4.10;70.18
3428;BME280;1727;42.624;23.406;2023-02-01T08:45:13;95109.31;;;4.15;72.14
3428;BME280;1727;42.624;23.406;2023-02-01T08:47:40;95110.09;;;4.31;71.84
3428;BME280;1727;42.624;23.406;2023-02-01T08:50:08;95107.34;;;4.34;71.75
3428;BME280;1727;42.624;23.406;2023-02-01T08:52:35;95096.88;;;4.36;69.61
3428;BME280;1727;42.624;23.406;2023-02-01T08:55:04;95104.31;;;4.42;70.16
3428;BME280;1727;42.624;23.406;2023-02-01T08:57:31;95110.34;;;4.43;70.54
3428;BME280;1727;42.624;23.406;2023-02-01T08:59:58;95089.72;;;4.40;69.81
3428;BME280;1727;42.624;23.406;2023-02-01T09:02:25;95098.63;;;4.35;69.17
3428;BME280;1727;42.624;23.406;2023-02-01T09:04:52;95097.53;;;4.40;68.73
3428;BME280;1727;42.624;23.406;2023-02-01T09:07:19;95102.84;;;4.52;69.05
3428;BME280;1727;42.624;23.406;2023-02-01T09:09:46;95102.25;;;4.63;71.15
3428;BME280;1727;42.624;23.406;2023-02-01T09:12:14;95100.09;;;4.70;68.07
3428;BME280;1727;42.624;23.406;2023-02-01T09:14:41;95101.97;;;4.82;69.23
3428;BME280;1727;42.624;23.406;2023-02-01T09:17:08;95110.59;;;4.82;67.90
3428;BME280;1727;42.624;23.406;2023-02-01T09:19:35;95111.81;;;4.91;69.25
3428;BME280;1727;42.624;23.406;2023-02-01T09:22:01;95120.88;;;5.00;68.22
3428;BME280;1727;42.624;23.406;2023-02-01T09:24:28;95121.03;;;4.96;68.84
3428;BME280;1727;42.624;23.406;2023-02-01T09:26:55;95116.88;;;4.94;69.03
3428;BME280;1727;42.624;23.406;2023-02-01T09:29:23;95115.75;;;4.98;75.95
3428;BME280;1727;42.624;23.406;2023-02-01T09:31:50;95117.34;;;5.01;69.08
3428;BME280;1727;42.624;23.406;2023-02-01T09:34:17;95115.75;;;4.98;70.38
3428;BME280;1727;42.624;23.406;2023-02-01T09:36:43;95112.41;;;4.96;67.80
3428;BME280;1727;42.624;23.406;2023-02-01T09:39:10;95112.97;;;5.01;69.74
3428;BME280;1727;42.624;23.406;2023-02-01T09:41:50;95112.31;;;4.97;67.89
3428;BME280;1727;42.624;23.406;2023-02-01T09:44:35;95094.47;;;4.91;66.81
3428;BME280;1727;42.624;23.406;2023-02-01T09:47:11;95093.19;;;4.98;68.78
3428;BME280;1727;42.624;23.406;2023-02-01T09:49:45;95096.72;;;4.97;68.90
3428;BME280;1727;42.624;23.406;2023-02-01T09:52:17;95097.47;;;5.00;67.53
3428;BME280;1727;42.624;23.406;2023-02-01T09:54:50;95096.72;;;4.97;66.27
3428;BME280;1727;42.624;23.406;2023-02-01T09:57:25;95092.34;;;4.98;67.55
3428;BME280;1727;42.624;23.406;2023-02-01T09:59:57;95067.84;;;5.02;70.70
3428;BME280;1727;42.624;23.406;2023-02-01T10:02:28;95075.72;;;5.01;66.63
3428;BME280;1727;42.624;23.406;2023-02-01T10:04:57;95076.09;;;5.09;66.57
3428;BME280;1727;42.624;23.406;2023-02-01T10:07:32;95068.75;;;5.15;66.42
3428;BME280;1727;42.624;23.406;2023-02-01T10:10:09;95073.66;;;5.20;64.87
3428;BME280;1727;42.624;23.406;2023-02-01T10:13:04;95078.81;;;5.21;64.80
3428;BME280;1727;42.624;23.406;2023-02-01T10:15:52;95068.56;;;5.18;64.79
3428;BME280;1727;42.624;23.406;2023-02-01T10:18:34;95061.88;;;5.14;65.83
3428;BME280;1727;42.624;23.406;2023-02-01T10:21:07;95060.50;;;5.23;65.06
3428;BME280;1727;42.624;23.406;2023-02-01T10:23:51;95065.13;;;5.32;63.56
3428;BME280;1727;42.624;23.406;2023-02-01T10:26:26;95051.25;;;5.46;64.05
3428;BME280;1727;42.624;23.406;2023-02-01T10:28:57;95044.47;;;5.57;64.33
3428;BME280;1727;42.624;23.406;2023-02-01T10:31:29;95043.78;;;5.68;63.81
3428;BME280;1727;42.624;23.406;2023-02-01T10:33:58;95042.91;;;5.82;63.14
3428;BME280;1727;42.624;23.406;2023-02-01T10:36:29;95036.13;;;5.94;62.92
3428;BME280;1727;42.624;23.406;2023-02-01T10:38:58;95019.66;;;5.93;63.04
3428;BME280;1727;42.624;23.406;2023-02-01T10:41:31;95030.88;;;6.08;62.16
3428;BME280;1727;42.624;23.406;2023-02-01T10:44:00;95032.03;;;6.16;62.28
3428;BME280;1727;42.624;23.406;2023-02-01T10:46:32;95025.25;;;6.27;61.49
3428;BME280;1727;42.624;23.406;2023-02-01T10:49:03;95028.97;;;6.37;60.93
3428;BME280;1727;42.624;23.406;2023-02-01T10:51:41;95022.91;;;6.36;60.06
3428;BME280;1727;42.624;23.406;2023-02-01T10:54:13;95014.38;;;6.60;60.70
3428;BME280;1727;42.624;23.406;2023-02-01T10:56:44;95020.03;;;6.79;59.75
3428;BME280;1727;42.624;23.406;2023-02-01T10:59:15;95015.53;;;6.68;58.85
3428;BME280;1727;42.624;23.406;2023-02-01T11:01:45;95003.72;;;6.63;59.38
3428;BME280;1727;42.624;23.406;2023-02-01T11:04:13;95013.53;;;6.59;59.28
3428;BME280;1727;42.624;23.406;2023-02-01T11:06:42;95007.28;;;6.62;60.18
3428;BME280;1727;42.624;23.406;2023-02-01T11:09:15;95012.59;;;6.60;59.55
3428;BME280;1727;42.624;23.406;2023-02-01T11:11:54;95013.94;;;6.53;63.65
3428;BME280;1727;42.624;23.406;2023-02-01T11:14:27;95013.94;;;6.53;61.22
3428;BME280;1727;42.624;23.406;2023-02-01T11:17:01;95014.88;;;6.52;60.67
3428;BME280;1727;42.624;23.406;2023-02-01T11:19:28;95018.75;;;6.59;60.18
3428;BME280;1727;42.624;23.406;2023-02-01T11:21:57;95008.97;;;6.75;59.37
3428;BME280;1727;42.624;23.406;2023-02-01T11:24:27;95009.06;;;6.87;59.14
3428;BME280;1727;42.624;23.406;2023-02-01T11:26:56;95005.94;;;6.81;57.85
3428;BME280;1727;42.624;23.406;2023-02-01T11:29:24;94996.66;;;6.77;61.08
3428;BME280;1727;42.624;23.406;2023-02-01T11:31:56;95005.50;;;6.88;59.81
3428;BME280;1727;42.624;23.406;2023-02-01T11:34:29;95000.81;;;6.93;59.11
3428;BME280;1727;42.624;23.406;2023-02-01T11:37:00;95003.53;;;7.04;57.87
3428;BME280;1727;42.624;23.406;2023-02-01T11:39:29;95011.66;;;7.12;57.23
3428;BME280;1727;42.624;23.406;2023-02-01T11:42:01;95007.66;;;7.19;57.54
3428;BME280;1727;42.624;23.406;2023-02-01T11:44:32;94990.66;;;7.26;57.06
3428;BME280;1727;42.624;23.406;2023-02-01T11:47:20;94995.00;;;7.38;58.09
3428;BME280;1727;42.624;23.406;2023-02-01T11:49:50;94981.72;;;7.41;56.96
3428;BME280;1727;42.624;23.406;2023-02-01T11:52:27;94991.66;;;7.36;56.60
3428;BME280;1727;42.624;23.406;2023-02-01T11:55:10;94990.00;;;7.35;57.11
3428;BME280;1727;42.624;23.406;2023-02-01T11:57:49;94972.34;;;7.39;57.58
3428;BME280;1727;42.624;23.406;2023-02-01T12:06:47;94969.06;;;7.48;56.49
3428;BME280;1727;42.624;23.406;2023-02-01T12:09:31;94962.19;;;7.47;56.99
3428;BME280;1727;42.624;23.406;2023-02-01T12:12:08;94955.50;;;7.56;56.80
3428;BME280;1727;42.624;23.406;2023-02-01T12:14:47;94962.03;;;7.61;56.70
3428;BME280;1727;42.624;23.406;2023-02-01T12:17:41;94949.94;;;7.60;56.39
3428;BME280;1727;42.624;23.406;2023-02-01T12:20:24;94954.97;;;7.51;56.74
3428;BME280;1727;42.624;23.406;2023-02-01T12:23:06;94963.72;;;7.62;56.83
3428;BME280;1727;42.624;23.406;2023-02-01T12:25:55;94959.78;;;7.57;56.67
3428;BME280;1727;42.624;23.406;2023-02-01T12:28:35;94963.34;;;7.43;56.12
3428;BME280;1727;42.624;23.406;2023-02-01T12:34:25;94953.91;;;7.17;57.21
3428;BME280;1727;42.624;23.406;2023-02-01T12:37:00;94953.59;;;7.21;61.91
3428;BME280;1727;42.624;23.406;2023-02-01T12:39:40;94952.34;;;7.27;58.16
3428;BME280;1727;42.624;23.406;2023-02-01T12:42:14;94962.91;;;7.25;57.32
3428;BME280;1727;42.624;23.406;2023-02-01T12:44:46;94954.53;;;7.20;57.36
3428;BME280;1727;42.624;23.406;2023-02-01T12:47:20;94958.63;;;7.24;58.38
3428;BME280;1727;42.624;23.406;2023-02-01T12:49:54;94959.56;;;7.23;58.44
3428;BME280;1727;42.624;23.406;2023-02-01T12:52:28;94964.47;;;7.15;57.05
3428;BME280;1727;42.624;23.406;2023-02-01T12:55:08;94963.53;;;7.16;56.79
3428;BME280;1727;42.624;23.406;2023-02-01T12:57:43;94961.84;;;7.15;56.39
3428;BME280;1727;42.624;23.406;2023-02-01T13:00:19;94962.56;;;7.17;57.56
3428;BME280;1727;42.624;23.406;2023-02-01T13:02:53;94955.38;;;7.21;56.54
3428;BME280;1727;42.624;23.406;2023-02-01T13:05:22;94946.06;;;7.29;56.52
3428;BME280;1727;42.624;23.406;2023-02-01T13:07:53;94946.50;;;7.23;57.03
3428;BME280;1727;42.624;23.406;2023-02-01T13:10:30;94956.63;;;7.15;56.52
3428;BME280;1727;42.624;23.406;2023-02-01T13:13:04;94947.25;;;7.12;56.56
3428;BME280;1727;42.624;23.406;2023-02-01T13:15:39;94945.97;;;7.18;56.47
3428;BME280;1727;42.624;23.406;2023-02-01T13:18:13;94942.75;;;7.14;56.09
3428;BME280;1727;42.624;23.406;2023-02-01T13:20:47;94935.53;;;7.18;57.17
3428;BME280;1727;42.624;23.406;2023-02-01T13:23:22;94946.06;;;7.29;56.37
3428;BME280;1727;42.624;23.406;2023-02-01T13:25:53;94943.34;;;7.31;56.30
3428;BME280;1727;42.624;23.406;2023-02-01T13:28:25;94942.97;;;7.24;55.01
3428;BME280;1727;42.624;23.406;2023-02-01T13:31:06;94941.47;;;7.20;54.83
3428;BME280;1727;42.624;23.406;2023-02-01T13:34:10;94951.50;;;7.26;55.25
3428;BME280;1727;42.624;23.406;2023-02-01T13:37:03;94955.69;;;7.29;55.59
3428;BME280;1727;42.624;23.406;2023-02-01T13:39:48;94948.56;;;7.31;54.44
3428;BME280;1727;42.624;23.406;2023-02-01T13:42:22;94950.47;;;7.29;54.59
3428;BME280;1727;42.624;23.406;2023-02-01T13:44:51;94949.97;;;7.24;54.06
3428;BME280;1727;42.624;23.406;2023-02-01T13:47:26;94943.03;;;7.23;55.81
3428;BME280;1727;42.624;23.406;2023-02-01T13:49:55;94946.91;;;7.17;53.52
3428;BME280;1727;42.624;23.406;2023-02-01T13:52:29;94943.38;;;7.18;52.79
3428;BME280;1727;42.624;23.406;2023-02-01T13:55:13;94943.97;;;7.22;53.58
3428;BME280;1727;42.624;23.406;2023-02-01T13:57:43;94953.41;;;7.24;54.17